createdAt,value
2023-05-16T00:01:25.039Z,100.00
2023-05-16T00:03:52.582Z,100.00
2023-05-16T00:06:20.311Z,100.00
2023-05-16T00:08:48.590Z,100.00
2023-05-16T00:11:17.679Z,100.00
2023-05-16T00:13:45.438Z,100.00
2023-05-16T00:16:14.700Z,100.00
2023-05-16T00:18:42.216Z,100.00
2023-05-16T00:21:09.637Z,100.00
2023-05-16T00:23:37.080Z,100.00
2023-05-16T00:26:04.524Z,100.00
2023-05-16T00:28:31.949Z,100.00
2023-05-16T00:30:59.512Z,100.00
2023-05-16T00:33:27.011Z,100.00
2023-05-16T00:35:54.506Z,100.00
2023-05-16T00:38:21.924Z,100.00
2023-05-16T00:40:49.515Z,100.00
2023-05-16T00:43:16.948Z,100.00
2023-05-16T00:45:45.808Z,100.00
2023-05-16T00:48:15.073Z,100.00
2023-05-16T00:50:42.762Z,100.00
2023-05-16T00:53:10.834Z,100.00
2023-05-16T00:55:38.768Z,100.00
2023-05-16T00:58:08.856Z,100.00
2023-05-16T01:00:36.377Z,100.00
2023-05-16T01:03:05.918Z,100.00
2023-05-16T01:05:34.225Z,100.00
2023-05-16T01:08:01.905Z,100.00
2023-05-16T01:11:02.109Z,100.00
2023-05-16T01:13:54.714Z,100.00
2023-05-16T01:16:34.618Z,100.00
2023-05-16T01:19:21.574Z,100.00
2023-05-16T01:22:05.761Z,100.00
2023-05-16T01:25:11.388Z,100.00
2023-05-16T01:27:41.080Z,100.00
2023-05-16T01:30:16.957Z,100.00
2023-05-16T01:32:44.799Z,100.00
2023-05-16T01:35:14.767Z,100.00
2023-05-16T01:37:56.097Z,100.00
2023-05-16T01:40:37.986Z,100.00
2023-05-16T01:43:11.928Z,100.00
2023-05-16T01:45:47.738Z,100.00
2023-05-16T01:48:22.374Z,100.00
2023-05-16T01:50:56.440Z,100.00
2023-05-16T01:53:33.626Z,100.00
2023-05-16T01:56:02.487Z,100.00
2023-05-16T01:58:33.310Z,100.00
2023-05-16T02:01:06.289Z,100.00
2023-05-16T02:03:34.776Z,100.00
2023-05-16T02:06:02.452Z,100.00
2023-05-16T02:08:30.331Z,100.00
2023-05-16T02:10:57.765Z,100.00
2023-05-16T02:13:25.292Z,100.00
2023-05-16T02:15:53.187Z,100.00
2023-05-16T02:18:20.810Z,100.00
2023-05-16T02:20:48.252Z,100.00
2023-05-16T02:23:16.905Z,100.00
2023-05-16T02:25:44.618Z,100.00
2023-05-16T02:28:12.143Z,100.00
2023-05-16T02:30:39.944Z,100.00
2023-05-16T02:33:07.569Z,100.00
2023-05-16T02:35:35.126Z,100.00
2023-05-16T02:38:02.692Z,100.00
2023-05-16T02:40:30.134Z,100.00
2023-05-16T02:42:57.686Z,100.00
2023-05-16T02:45:25.316Z,100.00
2023-05-16T02:47:52.900Z,100.00
2023-05-16T02:50:20.719Z,100.00
2023-05-16T02:52:48.427Z,100.00
2023-05-16T02:55:22.247Z,100.00
2023-05-16T02:57:51.184Z,100.00
2023-05-16T03:00:19.607Z,100.00
2023-05-16T03:02:47.678Z,100.00
2023-05-16T03:05:15.177Z,100.00
2023-05-16T03:07:42.736Z,100.00
2023-05-16T03:10:10.451Z,100.00
2023-05-16T03:12:39.190Z,100.00
2023-05-16T03:15:07.854Z,100.00
2023-05-16T03:17:36.935Z,100.00
2023-05-16T03:20:05.397Z,100.00
2023-05-16T03:22:32.800Z,100.00
2023-05-16T03:25:00.065Z,100.00
2023-05-16T03:27:28.105Z,100.00
2023-05-16T03:29:55.562Z,100.00
2023-05-16T03:32:23.091Z,100.00
2023-05-16T03:34:50.814Z,100.00
2023-05-16T03:37:18.403Z,100.00
2023-05-16T03:39:45.969Z,100.00
2023-05-16T03:42:13.331Z,100.00
2023-05-16T03:44:40.707Z,100.00
2023-05-16T03:47:08.355Z,100.00
2023-05-16T03:49:37.144Z,100.00
2023-05-16T03:52:05.710Z,100.00
2023-05-16T03:54:33.298Z,100.00
2023-05-16T03:57:00.866Z,100.00
2023-05-16T03:59:28.259Z,100.00
2023-05-16T04:01:55.730Z,100.00
2023-05-16T04:04:23.107Z,100.00
2023-05-16T04:06:50.571Z,100.00
2023-05-16T04:09:17.792Z,100.00
2023-05-16T04:11:45.965Z,100.00
2023-05-16T04:14:13.294Z,100.00
2023-05-16T04:16:40.832Z,100.00
2023-05-16T04:19:08.209Z,100.00
2023-05-16T04:21:36.470Z,100.00
2023-05-16T04:24:04.013Z,100.00
2023-05-16T04:26:32.024Z,100.00
2023-05-16T04:29:00.228Z,100.00
2023-05-16T04:31:27.858Z,100.00
2023-05-16T04:33:56.178Z,100.00
2023-05-16T04:36:23.799Z,100.00
2023-05-16T04:38:51.399Z,100.00
2023-05-16T04:41:18.872Z,100.00
2023-05-16T04:43:46.300Z,100.00
2023-05-16T04:46:15.598Z,100.00
2023-05-16T04:48:43.103Z,100.00
2023-05-16T04:51:10.537Z,100.00
2023-05-16T04:53:37.752Z,100.00
2023-05-16T04:56:06.053Z,100.00
2023-05-16T04:58:33.396Z,100.00
2023-05-16T05:01:01.864Z,100.00
2023-05-16T05:03:29.385Z,100.00
2023-05-16T05:05:56.873Z,100.00
2023-05-16T05:08:24.296Z,100.00
2023-05-16T05:10:51.638Z,100.00
2023-05-16T05:13:19.044Z,99.05
2023-05-16T05:15:46.685Z,93.64
2023-05-16T05:18:14.294Z,89.66
2023-05-16T05:20:42.271Z,85.36
2023-05-16T05:23:09.729Z,82.67
2023-05-16T05:25:37.831Z,79.17
2023-05-16T05:28:06.129Z,72.59
2023-05-16T05:30:33.723Z,68.57
2023-05-16T05:33:01.332Z,64.27
2023-05-16T05:35:29.214Z,61.42
2023-05-16T05:37:56.797Z,59.60
2023-05-16T05:40:24.309Z,57.82
2023-05-16T05:42:51.951Z,55.78
2023-05-16T05:45:19.387Z,54.49
2023-05-16T05:47:46.858Z,52.64
2023-05-16T05:50:15.724Z,51.20
2023-05-16T05:52:43.211Z,50.46
2023-05-16T05:55:10.716Z,48.96
2023-05-16T05:57:38.221Z,47.43
2023-05-16T06:00:07.124Z,44.84
2023-05-16T06:02:37.774Z,43.70
2023-05-16T06:05:05.896Z,42.72
2023-05-16T06:07:33.757Z,41.99
2023-05-16T06:10:05.271Z,40.88
2023-05-16T06:12:33.267Z,40.43
2023-05-16T06:15:00.797Z,39.75
2023-05-16T06:17:28.351Z,39.02
2023-05-16T06:19:55.718Z,38.28
2023-05-16T06:22:23.180Z,38.05
2023-05-16T06:24:50.902Z,37.96
2023-05-16T06:27:18.459Z,37.62
2023-05-16T06:29:45.858Z,36.93
2023-05-16T06:32:13.635Z,36.84
2023-05-16T06:34:41.081Z,36.49
2023-05-16T06:37:08.664Z,36.80
2023-05-16T06:39:36.087Z,36.20
2023-05-16T06:42:03.940Z,36.11
2023-05-16T06:44:33.373Z,35.45
2023-05-16T06:47:00.931Z,35.27
2023-05-16T06:49:28.544Z,35.19
2023-05-16T06:51:56.281Z,34.68
2023-05-16T06:54:23.743Z,34.28
2023-05-16T06:56:51.517Z,34.18
2023-05-16T06:59:19.022Z,34.50
2023-05-16T07:01:46.797Z,34.41
2023-05-16T07:04:15.512Z,34.36
2023-05-16T07:06:43.371Z,33.54
2023-05-16T07:09:11.169Z,33.55
2023-05-16T07:11:38.623Z,33.03
2023-05-16T07:14:06.581Z,33.05
2023-05-16T07:16:54.485Z,32.87
2023-05-16T07:19:37.335Z,32.93
2023-05-16T07:22:20.332Z,33.07
2023-05-16T07:25:11.007Z,32.61
2023-05-16T07:27:46.007Z,32.06
2023-05-16T07:30:19.236Z,31.77
2023-05-16T07:32:51.296Z,31.83
2023-05-16T07:35:39.263Z,30.75
2023-05-16T07:38:10.557Z,29.40
2023-05-16T07:40:50.075Z,29.61
2023-05-16T07:43:22.143Z,31.43
2023-05-16T07:46:16.161Z,32.03
2023-05-16T07:48:53.961Z,32.32
2023-05-16T07:51:26.208Z,32.91
2023-05-16T07:54:10.071Z,34.10
2023-05-16T07:56:45.995Z,32.74
2023-05-16T07:59:20.066Z,30.83
2023-05-16T08:01:49.089Z,31.53
2023-05-16T08:04:23.571Z,30.19
2023-05-16T08:07:01.782Z,31.43
2023-05-16T08:09:31.402Z,30.80
2023-05-16T08:12:05.695Z,30.83
2023-05-16T08:14:43.954Z,30.43
2023-05-16T08:17:11.841Z,31.09
2023-05-16T08:19:39.453Z,32.20
2023-05-16T08:22:15.349Z,32.60
2023-05-16T08:24:53.443Z,32.27
2023-05-16T08:27:21.874Z,31.64
2023-05-16T08:29:52.898Z,31.89
2023-05-16T08:32:24.422Z,31.72
2023-05-16T08:34:55.232Z,32.67
2023-05-16T08:37:28.021Z,32.88
2023-05-16T08:40:00.993Z,31.91
2023-05-16T08:42:30.912Z,32.10
2023-05-16T08:45:01.458Z,32.86
2023-05-16T08:47:36.126Z,33.45
2023-05-16T08:50:08.482Z,32.75
2023-05-16T08:52:44.140Z,32.10
2023-05-16T08:55:19.217Z,31.55
2023-05-16T08:57:50.804Z,33.16
2023-05-16T09:00:23.515Z,34.31
2023-05-16T09:02:56.550Z,34.74
2023-05-16T09:05:32.281Z,33.50
2023-05-16T09:08:07.384Z,33.13
2023-05-16T09:10:43.948Z,32.79
2023-05-16T09:13:13.508Z,33.10
2023-05-16T09:15:52.164Z,33.35
2023-05-16T09:18:30.422Z,33.84
2023-05-16T09:21:04.032Z,34.64
2023-05-16T09:23:39.716Z,35.23
2023-05-16T09:26:09.752Z,34.67
2023-05-16T09:28:40.764Z,35.64
2023-05-16T09:31:40.357Z,36.82
2023-05-16T09:34:17.700Z,38.06
2023-05-16T09:36:59.835Z,37.38
2023-05-16T09:39:30.013Z,37.50
2023-05-16T09:42:03.079Z,37.18
2023-05-16T09:44:32.378Z,38.22
2023-05-16T09:47:15.418Z,38.65
2023-05-16T09:49:48.798Z,37.11
2023-05-16T09:52:18.313Z,37.09
2023-05-16T09:54:51.555Z,37.64
2023-05-16T09:57:27.788Z,38.01
2023-05-16T10:00:02.253Z,38.16
2023-05-16T10:02:38.479Z,36.29
2023-05-16T10:05:14.283Z,34.72
2023-05-16T10:07:53.214Z,34.58
2023-05-16T10:10:25.740Z,34.76
2023-05-16T10:13:02.884Z,34.48
2023-05-16T10:15:33.659Z,33.91
2023-05-16T10:18:13.279Z,32.26
2023-05-16T10:20:52.443Z,33.70
2023-05-16T10:23:31.934Z,35.28
2023-05-16T10:26:05.523Z,36.28
2023-05-16T10:28:43.258Z,37.10
2023-05-16T10:31:12.831Z,36.91
2023-05-16T10:33:51.487Z,37.28
2023-05-16T10:36:28.479Z,34.83
2023-05-16T10:39:05.252Z,34.51
2023-05-16T10:41:36.632Z,34.18
2023-05-16T10:44:22.671Z,36.25
2023-05-16T10:46:59.987Z,36.71
2023-05-16T10:49:37.997Z,36.44
2023-05-16T10:52:12.599Z,35.52
2023-05-16T10:54:54.149Z,35.49
2023-05-16T10:57:25.975Z,34.75
2023-05-16T10:59:57.836Z,34.85
2023-05-16T11:02:26.172Z,34.34
2023-05-16T11:04:56.374Z,35.59
2023-05-16T11:07:25.249Z,36.54
2023-05-16T11:10:10.480Z,36.25
2023-05-16T11:12:38.617Z,34.90
2023-05-16T11:15:25.107Z,36.13
2023-05-16T11:18:09.080Z,37.06
2023-05-16T11:20:38.750Z,37.42
2023-05-16T11:23:26.028Z,37.70
2023-05-16T11:26:00.909Z,37.83
2023-05-16T11:28:28.852Z,37.98
2023-05-16T11:31:00.056Z,37.46
2023-05-16T11:33:29.969Z,36.25
2023-05-16T11:36:16.619Z,35.48
2023-05-16T11:38:44.598Z,35.10
2023-05-16T11:41:12.443Z,34.81
2023-05-16T11:43:44.015Z,35.21
2023-05-16T11:46:16.563Z,34.83
2023-05-16T11:48:46.541Z,35.55
2023-05-16T11:51:19.045Z,34.23
2023-05-16T11:53:50.447Z,34.34
2023-05-16T11:56:18.657Z,35.49
2023-05-16T11:58:46.244Z,36.94
2023-05-16T12:01:13.895Z,36.32
2023-05-16T12:03:41.920Z,36.38
2023-05-16T12:06:09.581Z,36.80
2023-05-16T12:08:37.561Z,35.54
2023-05-16T12:11:05.251Z,35.13
2023-05-16T12:13:32.916Z,35.34
2023-05-16T12:16:00.720Z,35.30
2023-05-16T12:18:28.369Z,35.84
2023-05-16T12:20:55.912Z,34.98
2023-05-16T12:23:23.675Z,33.91
2023-05-16T12:25:55.580Z,34.61
2023-05-16T12:28:23.051Z,34.66
2023-05-16T12:30:50.926Z,34.72
2023-05-16T12:33:18.596Z,33.84
2023-05-16T12:35:47.811Z,33.87
2023-05-16T12:38:17.438Z,34.24
2023-05-16T12:40:46.075Z,34.42
2023-05-16T12:43:19.934Z,34.40
2023-05-16T12:45:57.822Z,35.18
2023-05-16T12:48:34.577Z,34.24
2023-05-16T12:51:17.150Z,34.35
2023-05-16T12:53:57.631Z,34.20
2023-05-16T12:56:40.260Z,32.97
2023-05-16T12:59:09.070Z,33.55
2023-05-16T13:01:36.835Z,33.97
2023-05-16T13:04:05.199Z,34.41
2023-05-16T13:06:49.006Z,34.72
2023-05-16T13:09:20.473Z,35.39
2023-05-16T13:11:48.447Z,36.07
2023-05-16T13:14:17.418Z,35.14
2023-05-16T13:16:45.102Z,35.27
2023-05-16T13:19:12.691Z,35.69
2023-05-16T13:21:40.189Z,35.25
2023-05-16T13:24:07.914Z,35.56
2023-05-16T13:26:35.396Z,35.64
2023-05-16T13:29:02.972Z,37.62
2023-05-16T13:31:30.491Z,38.22
2023-05-16T13:33:59.078Z,38.66
2023-05-16T13:36:26.994Z,38.98
2023-05-16T13:38:55.098Z,38.76
2023-05-16T13:41:22.543Z,38.43
2023-05-16T13:43:50.031Z,38.58
2023-05-16T13:46:17.481Z,39.24
2023-05-16T13:48:45.085Z,40.72
2023-05-16T13:51:15.298Z,41.01
2023-05-16T13:53:48.169Z,41.00
2023-05-16T13:56:16.054Z,40.58
2023-05-16T13:58:59.695Z,40.83
2023-05-16T14:01:29.946Z,41.20
2023-05-16T14:03:57.778Z,41.34
2023-05-16T14:06:25.674Z,41.21
2023-05-16T14:08:53.568Z,41.95
2023-05-16T14:11:28.464Z,42.20
2023-05-16T14:13:57.996Z,43.34
2023-05-16T14:16:26.330Z,42.81
2023-05-16T14:18:54.140Z,41.99
2023-05-16T14:21:21.653Z,42.47
2023-05-16T14:23:49.191Z,42.51
2023-05-16T14:26:18.126Z,42.28
2023-05-16T14:28:45.662Z,42.93
2023-05-16T14:31:13.110Z,43.88
2023-05-16T14:33:41.251Z,44.56
2023-05-16T14:36:08.826Z,43.65
2023-05-16T14:38:36.734Z,43.44
2023-05-16T14:41:04.176Z,43.86
2023-05-16T14:43:31.871Z,41.45
2023-05-16T14:45:59.490Z,40.63
2023-05-16T14:48:27.093Z,41.69
2023-05-16T14:50:54.557Z,42.25
2023-05-16T14:53:22.089Z,43.33
2023-05-16T14:55:50.046Z,43.65
2023-05-16T14:58:17.765Z,41.96
2023-05-16T15:00:45.303Z,42.57
2023-05-16T15:03:15.672Z,43.22
2023-05-16T15:05:44.421Z,43.05
2023-05-16T15:08:11.957Z,42.77
2023-05-16T15:10:39.507Z,43.17
2023-05-16T15:13:08.316Z,43.84
2023-05-16T15:15:38.710Z,43.45
2023-05-16T15:18:06.315Z,43.46
2023-05-16T15:20:33.883Z,44.20
2023-05-16T15:23:01.321Z,43.42
2023-05-16T15:25:29.555Z,43.72
2023-05-16T15:27:57.510Z,44.20
2023-05-16T15:30:25.232Z,44.30
2023-05-16T15:32:52.925Z,43.83
2023-05-16T15:35:20.585Z,43.89
2023-05-16T15:37:47.995Z,42.81
2023-05-16T15:40:15.713Z,43.24
2023-05-16T15:42:44.398Z,44.04
2023-05-16T15:45:12.628Z,44.60
2023-05-16T15:47:42.033Z,45.32
2023-05-16T15:50:10.299Z,46.00
2023-05-16T15:52:37.759Z,45.51
2023-05-16T15:55:06.220Z,43.97
2023-05-16T15:57:33.658Z,43.98
2023-05-16T16:00:01.217Z,44.30
2023-05-16T16:02:28.818Z,44.90
2023-05-16T16:04:56.466Z,45.09
2023-05-16T16:07:24.862Z,46.07
2023-05-16T16:09:52.406Z,46.17
2023-05-16T16:12:19.839Z,46.81
2023-05-16T16:14:49.553Z,47.14
2023-05-16T16:17:17.277Z,47.44
2023-05-16T16:19:44.744Z,47.84
2023-05-16T16:22:12.170Z,47.25
2023-05-16T16:24:39.750Z,47.20
2023-05-16T16:27:07.235Z,46.92
2023-05-16T16:29:34.782Z,46.60
2023-05-16T16:32:02.223Z,46.98
2023-05-16T16:34:30.042Z,46.96
2023-05-16T16:36:57.516Z,47.34
2023-05-16T16:39:25.980Z,46.50
2023-05-16T16:41:53.516Z,47.08
2023-05-16T16:44:20.986Z,46.53
2023-05-16T16:46:48.532Z,47.18
2023-05-16T16:49:16.133Z,47.10
2023-05-16T16:51:43.615Z,46.38
2023-05-16T16:54:11.314Z,45.76
2023-05-16T16:56:38.778Z,45.75
2023-05-16T16:59:06.303Z,45.56
2023-05-16T17:01:35.037Z,46.13
2023-05-16T17:04:03.121Z,45.90
2023-05-16T17:06:30.956Z,45.78
2023-05-16T17:09:03.650Z,46.19
2023-05-16T17:11:31.916Z,46.16
2023-05-16T17:13:59.908Z,45.77
2023-05-16T17:16:30.289Z,45.61
2023-05-16T17:18:58.014Z,46.08
2023-05-16T17:21:26.817Z,45.49
2023-05-16T17:23:55.243Z,44.57
2023-05-16T17:26:22.853Z,43.49
2023-05-16T17:28:50.423Z,43.65
2023-05-16T17:31:17.976Z,43.30
2023-05-16T17:33:45.443Z,43.15
2023-05-16T17:36:12.952Z,42.66
2023-05-16T17:38:40.474Z,43.19
2023-05-16T17:41:07.980Z,43.75
2023-05-16T17:43:35.445Z,43.86
2023-05-16T17:46:04.039Z,44.26
2023-05-16T17:48:31.667Z,42.59
2023-05-16T17:50:59.249Z,42.60
2023-05-16T17:53:26.875Z,42.81
2023-05-16T17:55:54.359Z,42.74
2023-05-16T17:58:21.740Z,42.88
2023-05-16T18:00:49.349Z,43.04
2023-05-16T18:03:24.660Z,44.06
2023-05-16T18:06:00.594Z,44.43
2023-05-16T18:08:31.995Z,44.66
2023-05-16T18:11:01.727Z,45.15
2023-05-16T18:13:31.243Z,45.42
2023-05-16T18:15:58.893Z,44.96
2023-05-16T18:18:27.269Z,45.51
2023-05-16T18:20:55.112Z,46.02
2023-05-16T18:23:22.580Z,46.79
2023-05-16T18:25:50.367Z,46.26
2023-05-16T18:28:18.538Z,46.16
2023-05-16T18:30:46.071Z,46.49
2023-05-16T18:33:13.613Z,46.72
2023-05-16T18:35:41.076Z,47.08
2023-05-16T18:38:14.458Z,47.90
2023-05-16T18:40:48.658Z,48.23
2023-05-16T18:43:17.226Z,48.58
2023-05-16T18:45:44.836Z,48.53
2023-05-16T18:48:12.401Z,49.19
2023-05-16T18:50:40.098Z,49.68
2023-05-16T18:53:07.537Z,49.92
2023-05-16T18:55:35.240Z,50.26
2023-05-16T18:58:02.883Z,50.87
2023-05-16T19:00:30.456Z,51.20
2023-05-16T19:02:58.038Z,52.22
2023-05-16T19:05:25.871Z,52.30
2023-05-16T19:07:53.634Z,53.21
2023-05-16T19:10:21.851Z,53.62
2023-05-16T19:12:49.583Z,54.65
2023-05-16T19:15:17.496Z,55.28
2023-05-16T19:17:45.074Z,55.62
2023-05-16T19:20:12.811Z,56.55
2023-05-16T19:22:40.420Z,56.89
2023-05-16T19:25:08.673Z,57.68
2023-05-16T19:27:36.236Z,58.93
2023-05-16T19:30:04.160Z,59.18
2023-05-16T19:32:31.660Z,60.08
2023-05-16T19:34:59.275Z,60.87
2023-05-16T19:37:26.785Z,61.32
2023-05-16T19:39:56.567Z,61.95
2023-05-16T19:42:24.040Z,62.48
2023-05-16T19:44:51.879Z,63.04
2023-05-16T19:47:19.706Z,64.71
2023-05-16T19:49:47.412Z,65.63
2023-05-16T19:52:14.922Z,66.29
2023-05-16T19:54:42.504Z,66.63
2023-05-16T19:57:10.073Z,67.51
2023-05-16T19:59:38.284Z,68.39
2023-05-16T20:02:05.824Z,69.78
2023-05-16T20:04:34.534Z,70.36
2023-05-16T20:07:02.268Z,70.51
2023-05-16T20:09:29.969Z,71.70
2023-05-16T20:11:58.163Z,71.53
2023-05-16T20:14:26.411Z,72.44
2023-05-16T20:16:53.989Z,74.11
2023-05-16T20:19:21.638Z,75.05
2023-05-16T20:21:50.443Z,75.91
2023-05-16T20:24:17.965Z,77.64
2023-05-16T20:26:45.418Z,78.26
2023-05-16T20:29:13.179Z,78.72
2023-05-16T20:31:43.776Z,79.63
2023-05-16T20:34:11.468Z,79.91
2023-05-16T20:36:39.066Z,80.00
2023-05-16T20:39:09.095Z,81.07
2023-05-16T20:41:36.690Z,82.39
2023-05-16T20:44:04.375Z,83.03
2023-05-16T20:46:31.995Z,83.61
2023-05-16T20:48:59.509Z,84.81
2023-05-16T20:51:26.938Z,84.97
2023-05-16T20:53:54.540Z,85.41
2023-05-16T20:56:24.350Z,84.73
2023-05-16T20:58:51.958Z,85.96
2023-05-16T21:01:19.423Z,86.52
2023-05-16T21:03:46.964Z,85.84
2023-05-16T21:06:14.511Z,86.21
2023-05-16T21:08:42.013Z,86.97
2023-05-16T21:11:09.442Z,88.17
2023-05-16T21:13:37.042Z,89.60
2023-05-16T21:16:04.740Z,89.97
2023-05-16T21:18:33.126Z,89.81
2023-05-16T21:21:00.698Z,90.28
2023-05-16T21:23:28.473Z,91.37
2023-05-16T21:25:56.065Z,91.75
2023-05-16T21:28:23.597Z,89.71
2023-05-16T21:30:51.060Z,89.97
2023-05-16T21:33:18.581Z,91.06
2023-05-16T21:35:47.205Z,90.82
2023-05-16T21:38:14.818Z,87.87
2023-05-16T21:40:42.309Z,88.03
2023-05-16T21:43:10.084Z,88.56
2023-05-16T21:45:37.594Z,86.55
2023-05-16T21:48:05.381Z,87.18
2023-05-16T21:50:35.435Z,87.05
2023-05-16T21:53:03.137Z,86.35
2023-05-16T21:55:30.797Z,85.91
2023-05-16T21:57:58.343Z,86.21
2023-05-16T22:00:25.781Z,85.94
2023-05-16T22:02:53.362Z,85.89
2023-05-16T22:05:20.974Z,86.57
2023-05-16T22:07:48.640Z,87.19
2023-05-16T22:10:16.973Z,87.40
2023-05-16T22:12:44.486Z,86.44
2023-05-16T22:15:11.957Z,86.39
2023-05-16T22:17:39.678Z,84.17
2023-05-16T22:20:08.283Z,84.50
2023-05-16T22:22:36.418Z,85.07
2023-05-16T22:25:05.159Z,85.00
2023-05-16T22:27:32.785Z,85.52
2023-05-16T22:30:00.211Z,85.41
2023-05-16T22:32:27.929Z,85.09
2023-05-16T22:34:55.408Z,87.26
2023-05-16T22:37:23.340Z,88.80
2023-05-16T22:39:51.499Z,87.32
2023-05-16T22:42:19.420Z,87.31
2023-05-16T22:44:46.885Z,86.74
2023-05-16T22:47:14.442Z,86.46
2023-05-16T22:49:41.937Z,86.96
2023-05-16T22:52:09.382Z,86.98
2023-05-16T22:54:36.693Z,86.74
2023-05-16T22:57:04.394Z,87.90
2023-05-16T22:59:32.132Z,86.51
2023-05-16T23:01:59.674Z,87.32
2023-05-16T23:04:27.175Z,87.82
2023-05-16T23:06:54.766Z,85.58
2023-05-16T23:09:22.689Z,84.46
2023-05-16T23:11:50.214Z,85.73
2023-05-16T23:14:17.724Z,85.08
2023-05-16T23:16:45.152Z,85.19
2023-05-16T23:19:12.440Z,85.30
2023-05-16T23:21:40.085Z,86.14
2023-05-16T23:24:08.354Z,87.02
2023-05-16T23:26:35.957Z,87.74
2023-05-16T23:29:03.583Z,84.06
2023-05-16T23:31:31.162Z,82.69
2023-05-16T23:33:58.642Z,84.02
2023-05-16T23:36:26.402Z,84.24
2023-05-16T23:38:53.908Z,82.04
2023-05-16T23:41:21.367Z,82.55
2023-05-16T23:43:48.715Z,84.17
2023-05-16T23:46:16.235Z,84.13
2023-05-16T23:48:43.715Z,83.74
2023-05-16T23:51:11.225Z,83.04
2023-05-16T23:53:38.499Z,83.20
2023-05-16T23:56:06.116Z,82.50
2023-05-16T23:58:33.808Z,81.54
